sensor_id;sensor_type;location;lat;lon;timestamp;P1;durP1;ratioP1;P2;durP2;ratioP2
11386;SDS011;5748;53.102;8.456;2022-12-22T00:00:29;7.20;;;6.50;;
11386;SDS011;5748;53.102;8.456;2022-12-22T00:03:13;7.37;;;5.83;;
11386;SDS011;5748;53.102;8.456;2022-12-22T00:06:00;7.37;;;6.67;;
11386;SDS011;5748;53.102;8.456;2022-12-22T00:09:01;8.13;;;7.33;;
11386;SDS011;5748;53.102;8.456;2022-12-22T00:11:50;6.87;;;6.27;;
11386;SDS011;5748;53.102;8.456;2022-12-22T00:14:36;6.57;;;5.97;;
11386;SDS011;5748;53.102;8.456;2022-12-22T00:17:23;6.30;;;5.70;;
11386;SDS011;5748;53.102;8.456;2022-12-22T00:20:21;6.30;;;5.80;;
11386;SDS011;5748;53.102;8.456;2022-12-22T00:23:07;6.50;;;5.90;;
11386;SDS011;5748;53.102;8.456;2022-12-22T00:25:52;6.20;;;5.60;;
11386;SDS011;5748;53.102;8.456;2022-12-22T00:28:41;5.80;;;5.30;;
11386;SDS011;5748;53.102;8.456;2022-12-22T00:31:26;5.70;;;5.07;;
11386;SDS011;5748;53.102;8.456;2022-12-22T00:34:12;6.03;;;5.43;;
11386;SDS011;5748;53.102;8.456;2022-12-22T00:36:58;6.20;;;5.60;;
11386;SDS011;5748;53.102;8.456;2022-12-22T00:39:45;6.27;;;5.67;;
11386;SDS011;5748;53.102;8.456;2022-12-22T00:42:30;5.73;;;5.13;;
11386;SDS011;5748;53.102;8.456;2022-12-22T00:45:15;6.33;;;5.73;;
11386;SDS011;5748;53.102;8.456;2022-12-22T00:48:01;4.80;;;4.40;;
11386;SDS011;5748;53.102;8.456;2022-12-22T00:53:14;5.53;;;5.03;;
11386;SDS011;5748;53.102;8.456;2022-12-22T00:56:02;6.17;;;5.57;;
11386;SDS011;5748;53.102;8.456;2022-12-22T00:58:48;6.27;;;5.67;;
11386;SDS011;5748;53.102;8.456;2022-12-22T01:01:35;6.50;;;5.90;;
11386;SDS011;5748;53.102;8.456;2022-12-22T01:04:20;6.47;;;5.87;;
11386;SDS011;5748;53.102;8.456;2022-12-22T01:07:05;7.20;;;6.50;;
11386;SDS011;5748;53.102;8.456;2022-12-22T01:09:50;6.40;;;5.80;;
11386;SDS011;5748;53.102;8.456;2022-12-22T01:15:51;5.87;;;5.27;;
11386;SDS011;5748;53.102;8.456;2022-12-22T01:18:46;5.30;;;4.80;;
11386;SDS011;5748;53.102;8.456;2022-12-22T01:21:30;5.00;;;4.50;;
11386;SDS011;5748;53.102;8.456;2022-12-22T01:24:16;5.17;;;4.67;;
11386;SDS011;5748;53.102;8.456;2022-12-22T01:27:01;5.23;;;4.73;;
11386;SDS011;5748;53.102;8.456;2022-12-22T01:29:48;5.60;;;5.10;;
11386;SDS011;5748;53.102;8.456;2022-12-22T01:32:32;5.67;;;5.17;;
11386;SDS011;5748;53.102;8.456;2022-12-22T01:35:18;5.57;;;5.07;;
11386;SDS011;5748;53.102;8.456;2022-12-22T01:38:04;5.60;;;5.10;;
11386;SDS011;5748;53.102;8.456;2022-12-22T01:40:51;5.17;;;4.67;;
11386;SDS011;5748;53.102;8.456;2022-12-22T01:43:37;5.30;;;4.80;;
11386;SDS011;5748;53.102;8.456;2022-12-22T01:46:24;6.00;;;5.40;;
11386;SDS011;5748;53.102;8.456;2022-12-22T01:49:11;6.73;;;6.10;;
11386;SDS011;5748;53.102;8.456;2022-12-22T01:52:00;6.87;;;6.17;;
11386;SDS011;5748;53.102;8.456;2022-12-22T01:54:45;5.70;;;5.20;;
11386;SDS011;5748;53.102;8.456;2022-12-22T01:57:31;5.93;;;5.33;;
11386;SDS011;5748;53.102;8.456;2022-12-22T02:00:24;6.67;;;6.07;;
11386;SDS011;5748;53.102;8.456;2022-12-22T02:03:17;7.17;;;6.47;;
11386;SDS011;5748;53.102;8.456;2022-12-22T02:09:47;7.90;;;7.10;;
11386;SDS011;5748;53.102;8.456;2022-12-22T02:12:42;6.97;;;6.30;;
11386;SDS011;5748;53.102;8.456;2022-12-22T02:15:35;8.37;;;7.57;;
11386;SDS011;5748;53.102;8.456;2022-12-22T02:18:30;8.87;;;7.07;;
11386;SDS011;5748;53.102;8.456;2022-12-22T02:21:21;7.30;;;6.60;;
11386;SDS011;5748;53.102;8.456;2022-12-22T02:24:12;8.27;;;7.47;;
11386;SDS011;5748;53.102;8.456;2022-12-22T02:27:07;7.97;;;7.17;;
11386;SDS011;5748;53.102;8.456;2022-12-22T02:29:54;9.43;;;8.43;;
11386;SDS011;5748;53.102;8.456;2022-12-22T02:32:42;8.27;;;7.47;;
11386;SDS011;5748;53.102;8.456;2022-12-22T02:35:29;8.83;;;7.33;;
11386;SDS011;5748;53.102;8.456;2022-12-22T02:38:22;7.27;;;6.57;;
11386;SDS011;5748;53.102;8.456;2022-12-22T02:41:22;6.63;;;6.03;;
11386;SDS011;5748;53.102;8.456;2022-12-22T02:44:24;6.63;;;5.90;;
11386;SDS011;5748;53.102;8.456;2022-12-22T02:47:17;6.63;;;5.93;;
11386;SDS011;5748;53.102;8.456;2022-12-22T02:50:09;6.93;;;6.33;;
11386;SDS011;5748;53.102;8.456;2022-12-22T02:53:01;6.50;;;5.80;;
11386;SDS011;5748;53.102;8.456;2022-12-22T02:55:56;7.90;;;6.90;;
11386;SDS011;5748;53.102;8.456;2022-12-22T02:58:43;6.60;;;5.87;;
11386;SDS011;5748;53.102;8.456;2022-12-22T03:01:29;6.60;;;5.97;;
11386;SDS011;5748;53.102;8.456;2022-12-22T03:04:24;7.20;;;6.50;;
11386;SDS011;5748;53.102;8.456;2022-12-22T03:07:08;7.40;;;6.70;;
11386;SDS011;5748;53.102;8.456;2022-12-22T03:12:18;7.63;;;6.90;;
11386;SDS011;5748;53.102;8.456;2022-12-22T03:15:03;7.30;;;6.60;;
11386;SDS011;5748;53.102;8.456;2022-12-22T03:17:51;7.97;;;6.97;;
11386;SDS011;5748;53.102;8.456;2022-12-22T03:20:35;8.37;;;6.47;;
11386;SDS011;5748;53.102;8.456;2022-12-22T03:23:27;7.77;;;6.97;;
11386;SDS011;5748;53.102;8.456;2022-12-22T03:26:12;7.40;;;6.70;;
11386;SDS011;5748;53.102;8.456;2022-12-22T03:28:38;7.27;;;6.57;;
11386;SDS011;5748;53.102;8.456;2022-12-22T03:31:05;7.13;;;6.43;;
11386;SDS011;5748;53.102;8.456;2022-12-22T03:33:42;6.93;;;6.23;;
11386;SDS011;5748;53.102;8.456;2022-12-22T03:36:09;6.83;;;6.20;;
11386;SDS011;5748;53.102;8.456;2022-12-22T03:38:36;7.33;;;6.63;;
11386;SDS011;5748;53.102;8.456;2022-12-22T03:41:03;7.23;;;6.53;;
11386;SDS011;5748;53.102;8.456;2022-12-22T03:43:31;7.90;;;6.70;;
11386;SDS011;5748;53.102;8.456;2022-12-22T03:46:16;6.77;;;6.00;;
11386;SDS011;5748;53.102;8.456;2022-12-22T03:52:03;6.70;;;5.87;;
11386;SDS011;5748;53.102;8.456;2022-12-22T03:54:30;6.87;;;5.73;;
11386;SDS011;5748;53.102;8.456;2022-12-22T03:56:57;6.60;;;5.97;;
11386;SDS011;5748;53.102;8.456;2022-12-22T04:02:13;7.20;;;6.50;;
11386;SDS011;5748;53.102;8.456;2022-12-22T04:04:41;6.87;;;6.13;;
11386;SDS011;5748;53.102;8.456;2022-12-22T04:07:08;6.40;;;5.80;;
11386;SDS011;5748;53.102;8.456;2022-12-22T04:09:35;6.40;;;5.80;;
11386;SDS011;5748;53.102;8.456;2022-12-22T04:12:22;6.43;;;5.83;;
11386;SDS011;5748;53.102;8.456;2022-12-22T04:15:07;6.03;;;5.43;;
11386;SDS011;5748;53.102;8.456;2022-12-22T04:17:35;6.70;;;6.10;;
11386;SDS011;5748;53.102;8.456;2022-12-22T04:20:04;6.60;;;6.00;;
11386;SDS011;5748;53.102;8.456;2022-12-22T04:22:33;6.33;;;5.73;;
11386;SDS011;5748;53.102;8.456;2022-12-22T04:25:00;6.57;;;5.97;;
11386;SDS011;5748;53.102;8.456;2022-12-22T04:27:29;6.73;;;6.03;;
11386;SDS011;5748;53.102;8.456;2022-12-22T04:29:56;7.27;;;6.53;;
11386;SDS011;5748;53.102;8.456;2022-12-22T04:32:23;6.70;;;5.97;;
11386;SDS011;5748;53.102;8.456;2022-12-22T04:34:50;7.00;;;6.20;;
11386;SDS011;5748;53.102;8.456;2022-12-22T04:37:27;7.00;;;6.30;;
11386;SDS011;5748;53.102;8.456;2022-12-22T04:39:54;6.40;;;5.80;;
11386;SDS011;5748;53.102;8.456;2022-12-22T04:42:22;7.67;;;6.37;;
11386;SDS011;5748;53.102;8.456;2022-12-22T04:44:49;6.60;;;6.00;;
11386;SDS011;5748;53.102;8.456;2022-12-22T04:47:16;6.43;;;5.80;;
11386;SDS011;5748;53.102;8.456;2022-12-22T04:49:45;6.43;;;5.83;;
11386;SDS011;5748;53.102;8.456;2022-12-22T04:52:12;6.57;;;5.87;;
11386;SDS011;5748;53.102;8.456;2022-12-22T04:54:40;6.53;;;5.90;;
11386;SDS011;5748;53.102;8.456;2022-12-22T04:57:07;6.43;;;5.83;;
11386;SDS011;5748;53.102;8.456;2022-12-22T04:59:34;6.13;;;5.37;;
11386;SDS011;5748;53.102;8.456;2022-12-22T05:02:01;6.17;;;5.57;;
11386;SDS011;5748;53.102;8.456;2022-12-22T05:04:28;7.80;;;6.00;;
11386;SDS011;5748;53.102;8.456;2022-12-22T05:09:27;5.47;;;4.97;;
11386;SDS011;5748;53.102;8.456;2022-12-22T05:11:55;6.00;;;5.40;;
11386;SDS011;5748;53.102;8.456;2022-12-22T05:14:24;6.10;;;5.50;;
11386;SDS011;5748;53.102;8.456;2022-12-22T05:16:51;6.00;;;5.40;;
11386;SDS011;5748;53.102;8.456;2022-12-22T05:19:18;6.00;;;5.40;;
11386;SDS011;5748;53.102;8.456;2022-12-22T05:21:46;5.50;;;5.00;;
11386;SDS011;5748;53.102;8.456;2022-12-22T05:26:45;5.67;;;5.17;;
11386;SDS011;5748;53.102;8.456;2022-12-22T05:29:13;5.70;;;5.20;;
11386;SDS011;5748;53.102;8.456;2022-12-22T05:31:53;5.50;;;5.00;;
11386;SDS011;5748;53.102;8.456;2022-12-22T05:34:29;5.30;;;4.80;;
11386;SDS011;5748;53.102;8.456;2022-12-22T05:37:09;5.47;;;4.97;;
11386;SDS011;5748;53.102;8.456;2022-12-22T05:39:37;5.40;;;4.90;;
11386;SDS011;5748;53.102;8.456;2022-12-22T05:42:04;5.40;;;4.90;;
11386;SDS011;5748;53.102;8.456;2022-12-22T05:44:36;5.60;;;5.10;;
11386;SDS011;5748;53.102;8.456;2022-12-22T05:47:03;6.03;;;5.43;;
11386;SDS011;5748;53.102;8.456;2022-12-22T05:49:44;5.83;;;5.23;;
11386;SDS011;5748;53.102;8.456;2022-12-22T05:52:11;5.50;;;5.00;;
11386;SDS011;5748;53.102;8.456;2022-12-22T05:54:38;5.50;;;5.00;;
11386;SDS011;5748;53.102;8.456;2022-12-22T05:57:13;6.23;;;5.63;;
11386;SDS011;5748;53.102;8.456;2022-12-22T05:59:42;5.90;;;5.30;;
11386;SDS011;5748;53.102;8.456;2022-12-22T06:02:09;6.30;;;5.57;;
11386;SDS011;5748;53.102;8.456;2022-12-22T06:04:44;5.63;;;5.13;;
11386;SDS011;5748;53.102;8.456;2022-12-22T06:07:11;5.73;;;5.13;;
11386;SDS011;5748;53.102;8.456;2022-12-22T06:09:38;6.10;;;5.50;;
11386;SDS011;5748;53.102;8.456;2022-12-22T06:12:06;5.70;;;5.10;;
11386;SDS011;5748;53.102;8.456;2022-12-22T06:14:33;5.87;;;5.27;;
11386;SDS011;5748;53.102;8.456;2022-12-22T06:17:06;6.10;;;5.50;;
11386;SDS011;5748;53.102;8.456;2022-12-22T06:19:34;6.07;;;5.47;;
11386;SDS011;5748;53.102;8.456;2022-12-22T06:22:01;6.40;;;5.53;;
11386;SDS011;5748;53.102;8.456;2022-12-22T06:24:28;6.73;;;6.03;;
11386;SDS011;5748;53.102;8.456;2022-12-22T06:27:05;7.53;;;6.83;;
11386;SDS011;5748;53.102;8.456;2022-12-22T06:29:32;7.20;;;6.50;;
11386;SDS011;5748;53.102;8.456;2022-12-22T06:31:59;6.90;;;6.03;;
11386;SDS011;5748;53.102;8.456;2022-12-22T06:34:35;6.33;;;5.73;;
11386;SDS011;5748;53.102;8.456;2022-12-22T06:37:02;6.33;;;5.73;;
11386;SDS011;5748;53.102;8.456;2022-12-22T06:39:29;6.33;;;5.73;;
11386;SDS011;5748;53.102;8.456;2022-12-22T06:41:56;6.23;;;5.63;;
11386;SDS011;5748;53.102;8.456;2022-12-22T06:44:46;5.90;;;5.30;;
11386;SDS011;5748;53.102;8.456;2022-12-22T06:47:14;6.10;;;5.50;;
11386;SDS011;5748;53.102;8.456;2022-12-22T06:49:43;6.47;;;5.87;;
11386;SDS011;5748;53.102;8.456;2022-12-22T06:52:10;6.73;;;6.07;;
11386;SDS011;5748;53.102;8.456;2022-12-22T06:54:37;6.77;;;6.07;;
11386;SDS011;5748;53.102;8.456;2022-12-22T06:57:04;6.90;;;6.20;;
11386;SDS011;5748;53.102;8.456;2022-12-22T06:59:31;6.43;;;5.83;;
11386;SDS011;5748;53.102;8.456;2022-12-22T07:01:58;6.97;;;6.27;;
11386;SDS011;5748;53.102;8.456;2022-12-22T07:04:25;6.40;;;5.70;;
11386;SDS011;5748;53.102;8.456;2022-12-22T07:07:09;6.50;;;5.80;;
11386;SDS011;5748;53.102;8.456;2022-12-22T07:09:37;6.97;;;6.27;;
11386;SDS011;5748;53.102;8.456;2022-12-22T07:12:11;7.33;;;6.63;;
11386;SDS011;5748;53.102;8.456;2022-12-22T07:14:38;7.50;;;6.80;;
11386;SDS011;5748;53.102;8.456;2022-12-22T07:17:06;7.10;;;6.40;;
11386;SDS011;5748;53.102;8.456;2022-12-22T07:19:48;8.27;;;7.47;;
11386;SDS011;5748;53.102;8.456;2022-12-22T07:22:16;9.47;;;8.47;;
11386;SDS011;5748;53.102;8.456;2022-12-22T07:24:43;8.73;;;7.83;;
11386;SDS011;5748;53.102;8.456;2022-12-22T07:27:10;8.20;;;7.40;;
11386;SDS011;5748;53.102;8.456;2022-12-22T07:29:37;8.37;;;6.80;;
11386;SDS011;5748;53.102;8.456;2022-12-22T07:32:06;7.70;;;6.80;;
11386;SDS011;5748;53.102;8.456;2022-12-22T07:34:33;6.73;;;6.03;;
11386;SDS011;5748;53.102;8.456;2022-12-22T07:37:00;8.10;;;6.83;;
11386;SDS011;5748;53.102;8.456;2022-12-22T07:39:28;7.93;;;7.00;;
11386;SDS011;5748;53.102;8.456;2022-12-22T07:41:55;8.27;;;6.53;;
11386;SDS011;5748;53.102;8.456;2022-12-22T07:47:11;7.03;;;6.33;;
11386;SDS011;5748;53.102;8.456;2022-12-22T07:49:38;7.10;;;6.40;;
11386;SDS011;5748;53.102;8.456;2022-12-22T07:52:23;7.00;;;6.23;;
11386;SDS011;5748;53.102;8.456;2022-12-22T07:54:52;7.47;;;6.40;;
11386;SDS011;5748;53.102;8.456;2022-12-22T07:57:19;7.47;;;6.60;;
11386;SDS011;5748;53.102;8.456;2022-12-22T07:59:46;6.97;;;6.27;;
11386;SDS011;5748;53.102;8.456;2022-12-22T08:02:13;6.90;;;6.07;;
11386;SDS011;5748;53.102;8.456;2022-12-22T08:04:40;7.07;;;6.27;;
11386;SDS011;5748;53.102;8.456;2022-12-22T08:07:08;7.27;;;6.47;;
11386;SDS011;5748;53.102;8.456;2022-12-22T08:09:35;7.17;;;6.10;;
11386;SDS011;5748;53.102;8.456;2022-12-22T08:12:03;7.10;;;6.37;;
11386;SDS011;5748;53.102;8.456;2022-12-22T08:14:31;7.07;;;6.33;;
11386;SDS011;5748;53.102;8.456;2022-12-22T08:16:58;7.43;;;6.50;;
11386;SDS011;5748;53.102;8.456;2022-12-22T08:19:25;7.10;;;6.40;;
11386;SDS011;5748;53.102;8.456;2022-12-22T08:21:52;6.97;;;6.27;;
11386;SDS011;5748;53.102;8.456;2022-12-22T08:24:19;6.90;;;6.00;;
11386;SDS011;5748;53.102;8.456;2022-12-22T08:26:47;6.53;;;5.83;;
11386;SDS011;5748;53.102;8.456;2022-12-22T08:29:22;6.80;;;5.80;;
11386;SDS011;5748;53.102;8.456;2022-12-22T08:31:54;7.03;;;6.23;;
11386;SDS011;5748;53.102;8.456;2022-12-22T08:34:21;6.60;;;5.93;;
11386;SDS011;5748;53.102;8.456;2022-12-22T08:36:50;6.63;;;6.00;;
11386;SDS011;5748;53.102;8.456;2022-12-22T08:39:20;7.43;;;6.13;;
11386;SDS011;5748;53.102;8.456;2022-12-22T08:41:50;6.93;;;5.83;;
11386;SDS011;5748;53.102;8.456;2022-12-22T08:44:18;6.43;;;5.80;;
11386;SDS011;5748;53.102;8.456;2022-12-22T08:46:49;5.83;;;5.27;;
11386;SDS011;5748;53.102;8.456;2022-12-22T08:49:17;6.63;;;5.93;;
11386;SDS011;5748;53.102;8.456;2022-12-22T08:51:45;6.37;;;5.77;;
11386;SDS011;5748;53.102;8.456;2022-12-22T08:54:13;7.10;;;6.40;;
11386;SDS011;5748;53.102;8.456;2022-12-22T08:56:40;7.00;;;6.23;;
11386;SDS011;5748;53.102;8.456;2022-12-22T08:59:07;6.77;;;6.07;;
11386;SDS011;5748;53.102;8.456;2022-12-22T09:01:37;6.17;;;5.57;;
11386;SDS011;5748;53.102;8.456;2022-12-22T09:04:08;7.67;;;6.87;;
11386;SDS011;5748;53.102;8.456;2022-12-22T09:06:38;6.57;;;5.87;;
11386;SDS011;5748;53.102;8.456;2022-12-22T09:09:06;6.40;;;5.73;;
11386;SDS011;5748;53.102;8.456;2022-12-22T09:11:34;7.03;;;6.07;;
11386;SDS011;5748;53.102;8.456;2022-12-22T09:14:02;6.70;;;6.00;;
11386;SDS011;5748;53.102;8.456;2022-12-22T09:16:30;6.00;;;5.40;;
11386;SDS011;5748;53.102;8.456;2022-12-22T09:19:00;6.30;;;5.70;;
11386;SDS011;5748;53.102;8.456;2022-12-22T09:21:28;6.60;;;5.90;;
11386;SDS011;5748;53.102;8.456;2022-12-22T09:23:56;6.37;;;5.73;;
11386;SDS011;5748;53.102;8.456;2022-12-22T09:26:24;6.30;;;5.67;;
11386;SDS011;5748;53.102;8.456;2022-12-22T09:28:53;6.80;;;5.80;;
11386;SDS011;5748;53.102;8.456;2022-12-22T09:31:22;6.33;;;5.70;;
11386;SDS011;5748;53.102;8.456;2022-12-22T09:33:51;5.97;;;5.37;;
11386;SDS011;5748;53.102;8.456;2022-12-22T09:36:20;6.00;;;5.40;;
11386;SDS011;5748;53.102;8.456;2022-12-22T09:38:50;6.67;;;5.97;;
11386;SDS011;5748;53.102;8.456;2022-12-22T09:41:18;7.13;;;6.40;;
11386;SDS011;5748;53.102;8.456;2022-12-22T09:43:51;6.43;;;5.53;;
11386;SDS011;5748;53.102;8.456;2022-12-22T09:46:19;6.97;;;6.27;;
11386;SDS011;5748;53.102;8.456;2022-12-22T09:48:49;6.40;;;5.80;;
11386;SDS011;5748;53.102;8.456;2022-12-22T09:51:19;6.37;;;5.77;;
11386;SDS011;5748;53.102;8.456;2022-12-22T09:53:50;6.47;;;5.77;;
11386;SDS011;5748;53.102;8.456;2022-12-22T09:56:20;6.50;;;5.80;;
11386;SDS011;5748;53.102;8.456;2022-12-22T09:58:50;6.60;;;5.90;;
11386;SDS011;5748;53.102;8.456;2022-12-22T10:01:24;6.67;;;5.97;;
11386;SDS011;5748;53.102;8.456;2022-12-22T10:04:02;8.50;;;6.40;;
11386;SDS011;5748;53.102;8.456;2022-12-22T10:06:42;6.40;;;5.80;;
11386;SDS011;5748;53.102;8.456;2022-12-22T10:09:17;6.77;;;5.97;;
11386;SDS011;5748;53.102;8.456;2022-12-22T10:11:49;6.43;;;5.73;;
11386;SDS011;5748;53.102;8.456;2022-12-22T10:14:17;6.53;;;5.83;;
11386;SDS011;5748;53.102;8.456;2022-12-22T10:16:44;6.00;;;5.40;;
11386;SDS011;5748;53.102;8.456;2022-12-22T10:19:12;6.43;;;5.47;;
11386;SDS011;5748;53.102;8.456;2022-12-22T10:21:41;6.50;;;5.33;;
11386;SDS011;5748;53.102;8.456;2022-12-22T10:24:15;5.83;;;5.23;;
11386;SDS011;5748;53.102;8.456;2022-12-22T10:26:44;5.70;;;5.03;;
11386;SDS011;5748;53.102;8.456;2022-12-22T10:29:13;5.37;;;4.87;;
11386;SDS011;5748;53.102;8.456;2022-12-22T10:31:56;6.00;;;5.37;;
11386;SDS011;5748;53.102;8.456;2022-12-22T10:34:26;6.23;;;5.50;;
11386;SDS011;5748;53.102;8.456;2022-12-22T10:36:56;6.03;;;5.30;;
11386;SDS011;5748;53.102;8.456;2022-12-22T10:39:27;5.50;;;4.90;;
11386;SDS011;5748;53.102;8.456;2022-12-22T10:41:58;6.17;;;5.03;;
11386;SDS011;5748;53.102;8.456;2022-12-22T10:44:28;6.47;;;5.30;;
11386;SDS011;5748;53.102;8.456;2022-12-22T10:46:59;5.57;;;4.97;;
11386;SDS011;5748;53.102;8.456;2022-12-22T10:49:37;5.70;;;4.53;;
11386;SDS011;5748;53.102;8.456;2022-12-22T10:52:11;5.83;;;5.10;;
11386;SDS011;5748;53.102;8.456;2022-12-22T10:54:41;6.00;;;5.30;;
11386;SDS011;5748;53.102;8.456;2022-12-22T10:57:21;6.80;;;5.50;;
11386;SDS011;5748;53.102;8.456;2022-12-22T10:59:55;6.07;;;5.40;;
11386;SDS011;5748;53.102;8.456;2022-12-22T11:02:26;5.63;;;4.70;;
11386;SDS011;5748;53.102;8.456;2022-12-22T11:05:05;5.77;;;5.07;;
11386;SDS011;5748;53.102;8.456;2022-12-22T11:07:37;5.37;;;4.80;;
11386;SDS011;5748;53.102;8.456;2022-12-22T11:10:07;7.03;;;4.77;;
11386;SDS011;5748;53.102;8.456;2022-12-22T11:12:50;6.13;;;4.93;;
11386;SDS011;5748;53.102;8.456;2022-12-22T11:15:32;6.10;;;5.20;;
11386;SDS011;5748;53.102;8.456;2022-12-22T11:18:07;6.03;;;4.97;;
11386;SDS011;5748;53.102;8.456;2022-12-22T11:21:07;5.37;;;4.33;;
11386;SDS011;5748;53.102;8.456;2022-12-22T11:23:45;5.23;;;4.43;;
11386;SDS011;5748;53.102;8.456;2022-12-22T11:26:22;4.97;;;4.37;;
11386;SDS011;5748;53.102;8.456;2022-12-22T11:29:04;5.20;;;4.33;;
11386;SDS011;5748;53.102;8.456;2022-12-22T11:31:55;5.50;;;4.73;;
11386;SDS011;5748;53.102;8.456;2022-12-22T11:34:45;5.47;;;4.33;;
11386;SDS011;5748;53.102;8.456;2022-12-22T11:37:27;5.87;;;4.13;;
11386;SDS011;5748;53.102;8.456;2022-12-22T11:40:07;5.50;;;4.57;;
11386;SDS011;5748;53.102;8.456;2022-12-22T11:42:50;6.73;;;5.20;;
11386;SDS011;5748;53.102;8.456;2022-12-22T11:45:35;6.53;;;5.20;;
11386;SDS011;5748;53.102;8.456;2022-12-22T11:48:23;5.53;;;4.93;;
11386;SDS011;5748;53.102;8.456;2022-12-22T11:51:41;5.40;;;4.83;;
11386;SDS011;5748;53.102;8.456;2022-12-22T11:54:28;5.73;;;4.27;;
11386;SDS011;5748;53.102;8.456;2022-12-22T11:57:11;6.80;;;4.47;;
11386;SDS011;5748;53.102;8.456;2022-12-22T11:59:50;5.03;;;4.10;;
11386;SDS011;5748;53.102;8.456;2022-12-22T12:05:37;3.87;;;3.40;;
11386;SDS011;5748;53.102;8.456;2022-12-22T12:08:18;5.17;;;3.60;;
11386;SDS011;5748;53.102;8.456;2022-12-22T12:10:55;5.20;;;3.97;;
11386;SDS011;5748;53.102;8.456;2022-12-22T12:13:51;4.50;;;3.60;;
11386;SDS011;5748;53.102;8.456;2022-12-22T12:16:28;4.60;;;3.30;;
11386;SDS011;5748;53.102;8.456;2022-12-22T12:19:19;4.80;;;3.73;;
11386;SDS011;5748;53.102;8.456;2022-12-22T12:22:07;5.40;;;2.87;;
11386;SDS011;5748;53.102;8.456;2022-12-22T12:24:42;3.47;;;2.70;;
11386;SDS011;5748;53.102;8.456;2022-12-22T12:27:32;3.57;;;2.90;;
11386;SDS011;5748;53.102;8.456;2022-12-22T12:30:15;3.77;;;2.93;;
11386;SDS011;5748;53.102;8.456;2022-12-22T12:32:45;3.60;;;3.27;;
11386;SDS011;5748;53.102;8.456;2022-12-22T12:35:33;3.60;;;3.30;;
11386;SDS011;5748;53.102;8.456;2022-12-22T12:38:12;3.27;;;2.83;;
11386;SDS011;5748;53.102;8.456;2022-12-22T12:40:52;3.53;;;2.93;;
11386;SDS011;5748;53.102;8.456;2022-12-22T12:43:25;3.37;;;2.70;;
11386;SDS011;5748;53.102;8.456;2022-12-22T12:45:54;3.63;;;2.87;;
11386;SDS011;5748;53.102;8.456;2022-12-22T12:54:21;3.93;;;2.87;;
11386;SDS011;5748;53.102;8.456;2022-12-22T12:57:09;3.10;;;2.67;;
11386;SDS011;5748;53.102;8.456;2022-12-22T12:59:55;4.30;;;3.20;;
11386;SDS011;5748;53.102;8.456;2022-12-22T13:05:57;4.30;;;2.80;;
11386;SDS011;5748;53.102;8.456;2022-12-22T13:08:25;4.13;;;2.93;;
11386;SDS011;5748;53.102;8.456;2022-12-22T13:13:59;3.00;;;2.67;;
11386;SDS011;5748;53.102;8.456;2022-12-22T13:16:28;3.17;;;2.50;;
11386;SDS011;5748;53.102;8.456;2022-12-22T13:18:58;3.40;;;2.57;;
11386;SDS011;5748;53.102;8.456;2022-12-22T13:21:41;3.23;;;2.70;;
11386;SDS011;5748;53.102;8.456;2022-12-22T13:24:12;3.20;;;2.60;;
11386;SDS011;5748;53.102;8.456;2022-12-22T13:26:50;2.70;;;2.40;;
11386;SDS011;5748;53.102;8.456;2022-12-22T13:29:27;3.37;;;2.70;;
11386;SDS011;5748;53.102;8.456;2022-12-22T13:35:04;3.70;;;2.80;;
11386;SDS011;5748;53.102;8.456;2022-12-22T13:37:49;3.60;;;2.43;;
11386;SDS011;5748;53.102;8.456;2022-12-22T13:40:25;2.83;;;2.43;;
11386;SDS011;5748;53.102;8.456;2022-12-22T13:42:55;3.80;;;2.70;;
11386;SDS011;5748;53.102;8.456;2022-12-22T13:45:28;3.60;;;2.53;;
11386;SDS011;5748;53.102;8.456;2022-12-22T13:48:04;3.20;;;2.50;;
11386;SDS011;5748;53.102;8.456;2022-12-22T13:50:35;3.70;;;2.70;;
11386;SDS011;5748;53.102;8.456;2022-12-22T13:53:08;3.63;;;2.50;;
11386;SDS011;5748;53.102;8.456;2022-12-22T13:55:39;3.67;;;2.33;;
11386;SDS011;5748;53.102;8.456;2022-12-22T13:58:18;2.83;;;2.30;;
11386;SDS011;5748;53.102;8.456;2022-12-22T14:01:12;3.60;;;2.33;;
11386;SDS011;5748;53.102;8.456;2022-12-22T14:03:48;3.57;;;2.50;;
11386;SDS011;5748;53.102;8.456;2022-12-22T14:06:18;3.73;;;3.00;;
11386;SDS011;5748;53.102;8.456;2022-12-22T14:09:09;3.33;;;2.83;;
11386;SDS011;5748;53.102;8.456;2022-12-22T14:11:54;2.97;;;2.50;;
11386;SDS011;5748;53.102;8.456;2022-12-22T14:14:30;3.93;;;3.10;;
11386;SDS011;5748;53.102;8.456;2022-12-22T14:17:04;4.27;;;2.93;;
11386;SDS011;5748;53.102;8.456;2022-12-22T14:19:48;3.40;;;2.40;;
11386;SDS011;5748;53.102;8.456;2022-12-22T14:22:23;5.10;;;2.90;;
11386;SDS011;5748;53.102;8.456;2022-12-22T14:24:54;3.73;;;2.67;;
11386;SDS011;5748;53.102;8.456;2022-12-22T14:27:28;4.70;;;3.10;;
11386;SDS011;5748;53.102;8.456;2022-12-22T14:32:47;3.40;;;2.50;;
11386;SDS011;5748;53.102;8.456;2022-12-22T14:35:24;4.23;;;2.50;;
11386;SDS011;5748;53.102;8.456;2022-12-22T14:38:06;3.27;;;2.50;;
11386;SDS011;5748;53.102;8.456;2022-12-22T14:40:54;3.90;;;3.00;;
11386;SDS011;5748;53.102;8.456;2022-12-22T14:43:23;4.63;;;3.13;;
11386;SDS011;5748;53.102;8.456;2022-12-22T14:46:00;2.83;;;2.43;;
11386;SDS011;5748;53.102;8.456;2022-12-22T14:48:37;3.63;;;2.90;;
11386;SDS011;5748;53.102;8.456;2022-12-22T14:51:17;3.47;;;2.83;;
11386;SDS011;5748;53.102;8.456;2022-12-22T14:53:46;4.57;;;2.80;;
11386;SDS011;5748;53.102;8.456;2022-12-22T14:56:18;4.03;;;2.80;;
11386;SDS011;5748;53.102;8.456;2022-12-22T14:58:47;3.60;;;2.60;;
11386;SDS011;5748;53.102;8.456;2022-12-22T15:01:22;3.17;;;2.67;;
11386;SDS011;5748;53.102;8.456;2022-12-22T15:04:04;4.20;;;2.60;;
11386;SDS011;5748;53.102;8.456;2022-12-22T15:06:46;3.63;;;2.43;;
11386;SDS011;5748;53.102;8.456;2022-12-22T15:09:24;3.30;;;2.50;;
11386;SDS011;5748;53.102;8.456;2022-12-22T15:11:55;4.30;;;2.50;;
11386;SDS011;5748;53.102;8.456;2022-12-22T15:14:34;2.87;;;2.47;;
11386;SDS011;5748;53.102;8.456;2022-12-22T15:17:03;3.57;;;2.50;;
11386;SDS011;5748;53.102;8.456;2022-12-22T15:19:36;4.07;;;2.40;;
11386;SDS011;5748;53.102;8.456;2022-12-22T15:22:05;2.73;;;2.40;;
11386;SDS011;5748;53.102;8.456;2022-12-22T15:24:34;3.20;;;2.47;;
11386;SDS011;5748;53.102;8.456;2022-12-22T15:27:08;3.50;;;2.70;;
11386;SDS011;5748;53.102;8.456;2022-12-22T15:29:35;2.67;;;2.10;;
11386;SDS011;5748;53.102;8.456;2022-12-22T15:32:02;3.03;;;2.20;;
11386;SDS011;5748;53.102;8.456;2022-12-22T15:34:40;3.00;;;2.10;;
11386;SDS011;5748;53.102;8.456;2022-12-22T15:37:09;2.93;;;2.50;;
11386;SDS011;5748;53.102;8.456;2022-12-22T15:39:37;3.83;;;2.80;;
11386;SDS011;5748;53.102;8.456;2022-12-22T15:42:04;3.80;;;2.60;;
11386;SDS011;5748;53.102;8.456;2022-12-22T15:44:33;3.90;;;2.80;;
11386;SDS011;5748;53.102;8.456;2022-12-22T15:47:00;3.60;;;2.78;;
11386;SDS011;5748;53.102;8.456;2022-12-22T15:49:27;5.10;;;3.03;;
11386;SDS011;5748;53.102;8.456;2022-12-22T15:51:58;4.23;;;3.00;;
11386;SDS011;5748;53.102;8.456;2022-12-22T15:54:28;4.72;;;3.45;;
11386;SDS011;5748;53.102;8.456;2022-12-22T15:59:45;4.43;;;2.90;;
11386;SDS011;5748;53.102;8.456;2022-12-22T16:02:30;3.87;;;3.00;;
11386;SDS011;5748;53.102;8.456;2022-12-22T16:04:57;4.73;;;3.47;;
11386;SDS011;5748;53.102;8.456;2022-12-22T16:07:24;3.90;;;3.23;;
11386;SDS011;5748;53.102;8.456;2022-12-22T16:09:58;3.43;;;2.90;;
11386;SDS011;5748;53.102;8.456;2022-12-22T16:12:25;4.63;;;3.00;;
11386;SDS011;5748;53.102;8.456;2022-12-22T16:15:01;4.70;;;3.77;;
11386;SDS011;5748;53.102;8.456;2022-12-22T16:17:29;3.40;;;3.00;;
11386;SDS011;5748;53.102;8.456;2022-12-22T16:22:34;3.63;;;2.80;;
11386;SDS011;5748;53.102;8.456;2022-12-22T16:25:04;3.90;;;2.97;;
11386;SDS011;5748;53.102;8.456;2022-12-22T16:27:43;4.33;;;2.90;;
11386;SDS011;5748;53.102;8.456;2022-12-22T16:30:15;3.77;;;2.80;;
11386;SDS011;5748;53.102;8.456;2022-12-22T16:32:47;6.20;;;5.20;;
11386;SDS011;5748;53.102;8.456;2022-12-22T16:35:24;5.80;;;4.10;;
11386;SDS011;5748;53.102;8.456;2022-12-22T16:37:53;4.50;;;3.43;;
11386;SDS011;5748;53.102;8.456;2022-12-22T16:40:29;3.70;;;3.03;;
11386;SDS011;5748;53.102;8.456;2022-12-22T16:42:59;4.43;;;3.13;;